Agua Doce do Norte, Brazil
Current Conditions -  °F | °C
As of 9:00 AM on Thursday 27 Nov 2014 (Local Time) from SBIP Reporting Station
Broken Clouds Broken Clouds  
Wind Chill: 77°   Ceiling: 6000
Heat Index: 79°   Visibility: 6mi
Dew Point: 63°   Wind: 9mph
Humidity: 61%   Direction: 30°NNE
Pressure: 29.91"   Gusts: NA
Location:  18.55°S, 40.98°W
Report Text: SBIP 271100Z 03008KT 9999 SCT025 BKN060 25/17 Q1013
Loading
Personal Weather Stations






























Interactive Weather Map New forecast layout! Learn more

10-Day Weather Forecast

Advertisements
Track Severe Weather on mobile